Time;durP1;ratioP1;P1;durP2;ratioP2;P2;SDS_P1;SDS_P2;PMS_P1;PMS_P2;Temp;Humidity;BMP_temperature;BMP_pressure;BME280_temperature;BME280_humidity;BME280_pressure;Samples;Min_cycle;Max_cycle;Signal;HPM_P1;HPM_P2
2023/01/25 00:00:19;;;;;;;0.00;0.00;;;;;;;11.72;70.90;102966.22;7365132;19;20019;-59
2023/01/25 00:02:45;;;;;;;0.00;0.00;;;;;;;11.73;70.52;102960.13;7364540;19;21234;-59
2023/01/25 00:05:10;;;;;;;0.10;0.10;;;;;;;11.74;70.00;102960.13;7357844;19;20022;-58
2023/01/25 00:07:36;;;;;;;0.10;0.10;;;;;;;11.72;70.72;102955.75;7360441;19;20013;-59
2023/01/25 00:10:02;;;;;;;0.08;0.08;;;;;;;11.73;70.49;102955.75;7357735;19;20355;-59
2023/01/25 00:12:27;;;;;;;0.10;0.10;;;;;;;11.73;70.50;102955.75;7364675;19;20006;-59
2023/01/25 00:14:53;;;;;;;0.00;0.00;;;;;;;11.73;70.66;102953.13;7361821;19;20541;-58
2023/01/25 00:17:18;;;;;;;0.10;0.10;;;;;;;11.64;70.20;102935.59;7363280;19;20568;-59
2023/01/25 00:19:43;;;;;;;0.00;0.00;;;;;;;11.74;70.69;102961.88;7360942;19;20014;-58
2023/01/25 00:22:09;;;;;;;0.00;0.00;;;;;;;11.72;70.21;102958.38;7361656;19;20014;-59
2023/01/25 00:24:34;;;;;;;0.00;0.00;;;;;;;11.66;70.67;102954.84;7361984;19;20031;-59
2023/01/25 00:27:01;;;;;;;0.00;0.00;;;;;;;11.68;70.83;102949.59;7364128;19;20010;-59
2023/01/25 00:29:26;;;;;;;0.10;0.10;;;;;;;11.69;70.68;102960.09;7364893;19;20130;-59
2023/01/25 00:32:26;;;;;;;0.08;0.08;;;;;;;11.73;70.13;102960.13;7365220;19;20408;-58
2023/01/25 00:34:51;;;;;;;0.00;0.00;;;;;;;11.70;70.49;102940.88;7261589;19;2004185;-59
2023/01/25 00:37:17;;;;;;;0.00;0.00;;;;;;;11.68;70.68;102942.63;7361870;19;20761;-59
2023/01/25 00:39:42;;;;;;;0.10;0.10;;;;;;;11.68;71.01;102947.84;7359961;19;20092;-59
2023/01/25 00:42:10;;;;;;;0.00;0.00;;;;;;;11.70;70.16;102940.88;7360365;19;20014;-59
2023/01/25 00:44:36;;;;;;;0.00;0.00;;;;;;;11.62;70.63;102941.72;7361857;19;20015;-59
2023/01/25 00:47:01;;;;;;;0.00;0.00;;;;;;;11.67;71.10;102955.72;7364722;19;20017;-59
2023/01/25 00:49:26;;;;;;;0.00;0.00;;;;;;;11.65;70.95;102947.81;7362655;19;20482;-59
2023/01/25 00:51:54;;;;;;;0.00;0.00;;;;;;;11.65;70.59;102939.97;7363333;19;20014;-59
2023/01/25 00:54:20;;;;;;;0.00;0.00;;;;;;;11.65;70.64;102947.81;7361314;19;20102;-57
2023/01/25 00:56:46;;;;;;;0.08;0.08;;;;;;;11.65;70.81;102947.81;7362636;19;20034;-58
2023/01/25 00:59:12;;;;;;;0.10;0.10;;;;;;;11.65;71.61;102939.09;7363824;19;20014;-59
2023/01/25 01:01:39;;;;;;;0.00;0.00;;;;;;;11.64;71.52;102935.59;7361423;19;20481;-59
2023/01/25 01:04:05;;;;;;;0.00;0.00;;;;;;;11.64;71.34;102939.97;7359731;19;20782;-59
2023/01/25 01:06:30;;;;;;;0.00;0.00;;;;;;;11.61;71.59;102940.84;7356859;19;20002;-59
2023/01/25 01:08:55;;;;;;;0.05;0.05;;;;;;;11.61;71.66;102948.69;7360806;19;20436;-59
2023/01/25 01:11:22;;;;;;;0.10;0.10;;;;;;;11.61;71.34;102950.44;7363240;19;20114;-59
2023/01/25 01:13:47;;;;;;;0.10;0.10;;;;;;;11.57;71.64;102953.88;7364527;19;20541;-57
2023/01/25 01:16:13;;;;;;;0.10;0.10;;;;;;;11.58;71.67;102956.50;7360990;19;20013;-59
2023/01/25 01:18:41;;;;;;;0.00;0.00;;;;;;;11.59;71.40;102953.00;7361980;19;20011;-59
2023/01/25 01:21:08;;;;;;;0.00;0.00;;;;;;;11.56;71.78;102955.63;7361675;19;20022;-59
2023/01/25 01:23:34;;;;;;;0.00;0.00;;;;;;;11.55;72.11;102956.44;7360457;19;20486;-58
2023/01/25 01:26:04;;;;;;;0.10;0.10;;;;;;;11.55;71.95;102956.44;7361897;19;20011;-58
2023/01/25 01:28:32;;;;;;;0.10;0.10;;;;;;;11.54;71.94;102949.47;7363570;19;20033;-59
2023/01/25 01:31:06;;;;;;;0.00;0.00;;;;;;;11.41;71.88;102924.06;7358218;19;20068;-58
2023/01/25 01:33:31;;;;;;;0.00;0.00;;;;;;;11.39;72.49;102928.41;7359632;19;20439;-58
2023/01/25 01:35:57;;;;;;;0.10;0.10;;;;;;;11.48;71.94;102944.19;7363202;19;20099;-58
2023/01/25 01:38:22;;;;;;;0.05;0.05;;;;;;;11.46;72.53;102940.69;7352818;19;20898;-58
2023/01/25 01:40:49;;;;;;;0.00;0.00;;;;;;;11.46;72.25;102945.06;7363863;19;20006;-58
2023/01/25 01:43:18;;;;;;;0.00;0.00;;;;;;;11.45;71.85;102944.16;7358468;19;20030;-58
2023/01/25 01:45:47;;;;;;;0.10;0.10;;;;;;;11.41;72.22;102932.81;7361335;19;20021;-58
2023/01/25 01:48:23;;;;;;;0.10;0.10;;;;;;;11.40;72.62;102938.00;7361831;19;20032;-58
2023/01/25 01:50:53;;;;;;;0.00;0.00;;;;;;;11.38;73.02;102927.53;7361139;19;20007;-58
2023/01/25 01:53:21;;;;;;;0.00;0.00;;;;;;;11.37;73.28;102930.13;7363058;19;20010;-58
2023/01/25 01:55:46;;;;;;;0.00;0.00;;;;;;;11.35;73.16;102926.59;7356705;19;20474;-58
2023/01/25 01:58:12;;;;;;;0.00;0.00;;;;;;;11.33;73.12;102912.66;7362161;19;20010;-59
2023/01/25 02:00:39;;;;;;;0.00;0.00;;;;;;;11.32;73.34;102919.63;7359318;19;20022;-58
2023/01/25 02:03:05;;;;;;;0.10;0.10;;;;;;;11.23;73.32;102896.00;7360256;19;20019;-58
2023/01/25 02:05:49;;;;;;;0.05;0.05;;;;;;;11.27;72.70;102903.00;7358760;19;20458;-59
2023/01/25 02:08:14;;;;;;;0.10;0.10;;;;;;;11.31;73.05;102914.38;7362789;19;20018;-58
2023/01/25 02:10:42;;;;;;;0.00;0.00;;;;;;;11.20;73.66;102895.06;7361718;19;20014;-57
2023/01/25 02:13:08;;;;;;;0.10;0.10;;;;;;;11.27;73.38;102909.97;7361114;19;20014;-59
2023/01/25 02:15:44;;;;;;;0.00;0.00;;;;;;;11.33;72.77;102916.13;7361259;19;20014;-59
2023/01/25 02:18:10;;;;;;;0.00;0.00;;;;;;;11.29;73.56;102910.84;7357815;19;20051;-58
2023/01/25 02:20:38;;;;;;;0.10;0.10;;;;;;;11.32;73.64;102916.13;7360477;19;20158;-59
2023/01/25 02:23:20;;;;;;;0.00;0.00;;;;;;;11.33;73.24;102912.66;7360624;19;20006;-58
2023/01/25 02:25:46;;;;;;;0.00;0.00;;;;;;;11.25;73.88;102909.06;7360996;19;20013;-60
2023/01/25 02:28:20;;;;;;;0.10;0.10;;;;;;;11.28;73.45;102915.22;7362234;19;20010;-57
2023/01/25 02:30:46;;;;;;;0.00;0.00;;;;;;;11.19;73.24;102907.28;7361243;19;20018;-58
2023/01/25 02:33:11;;;;;;;0.00;0.00;;;;;;;11.30;73.22;102926.56;7359857;19;20137;-58
2023/01/25 02:36:04;;;;;;;0.00;0.00;;;;;;;11.34;72.99;102928.34;7360995;19;20009;-59
2023/01/25 02:38:36;;;;;;;0.08;0.08;;;;;;;11.32;73.21;102922.25;7260415;19;2004554;-57
2023/01/25 02:41:06;;;;;;;0.10;0.10;;;;;;;11.20;73.11;102910.75;7358505;19;20011;-57
2023/01/25 02:43:33;;;;;;;0.08;0.08;;;;;;;11.31;73.51;102924.84;7360759;19;20029;-58
2023/01/25 02:46:33;;;;;;;0.00;0.00;;;;;;;11.34;72.71;102932.72;7363785;19;20014;-58
2023/01/25 02:48:59;;;;;;;0.10;0.10;;;;;;;11.31;73.04;102919.63;7257952;19;2004420;-59
2023/01/25 02:51:28;;;;;;;0.10;0.10;;;;;;;11.31;73.43;102919.63;7359203;19;20010;-59
2023/01/25 02:53:54;;;;;;;0.00;0.00;;;;;;;11.29;73.79;102916.09;7357952;19;20034;-58
2023/01/25 02:56:20;;;;;;;0.08;0.08;;;;;;;11.22;73.75;102901.22;7360820;19;20006;-59
2023/01/25 02:58:46;;;;;;;0.00;0.00;;;;;;;11.29;73.87;102910.84;7348680;19;20014;-59
2023/01/25 03:01:12;;;;;;;0.08;0.08;;;;;;;11.24;73.87;102907.31;7360311;19;20560;-58
2023/01/25 03:03:37;;;;;;;0.00;0.00;;;;;;;11.30;73.32;102908.25;7356698;19;20017;-59
2023/01/25 03:06:04;;;;;;;0.10;0.10;;;;;;;11.30;73.53;102907.38;7346665;19;20002;-58
2023/01/25 03:08:29;;;;;;;0.10;0.10;;;;;;;11.29;74.26;102896.03;7350684;19;20038;-58
2023/01/25 03:10:57;;;;;;;0.10;0.10;;;;;;;11.28;74.09;102904.75;7358595;19;20010;-58
2023/01/25 03:13:22;;;;;;;0.10;0.10;;;;;;;11.29;74.25;102910.84;7354064;19;20007;-58
2023/01/25 03:15:48;;;;;;;0.00;0.00;;;;;;;11.29;73.72;102918.72;7359318;19;20726;-58
2023/01/25 03:18:13;;;;;;;0.10;0.10;;;;;;;11.30;74.28;102917.84;7357488;19;20021;-58
2023/01/25 03:20:39;;;;;;;0.03;0.03;;;;;;;11.28;74.34;102912.59;7355604;19;20019;-58
2023/01/25 03:23:04;;;;;;;0.00;0.00;;;;;;;11.29;74.07;102913.47;7357510;19;20845;-58
2023/01/25 03:25:29;;;;;;;0.08;0.08;;;;;;;11.30;73.28;102916.09;7358706;19;20018;-59
2023/01/25 03:27:55;;;;;;;0.10;0.10;;;;;;;11.30;74.13;102915.22;7357197;19;20044;-58
2023/01/25 03:30:21;;;;;;;0.00;0.00;;;;;;;11.28;74.07;102904.75;7365729;19;20019;-58
2023/01/25 03:32:46;;;;;;;0.00;0.00;;;;;;;11.30;74.53;102907.38;7365122;19;20018;-59
2023/01/25 03:35:11;;;;;;;0.00;0.00;;;;;;;11.31;74.08;102909.16;7359615;19;20090;-58
2023/01/25 03:37:37;;;;;;;0.10;0.10;;;;;;;11.30;74.47;102913.47;7363613;19;20010;-59
2023/01/25 03:40:02;;;;;;;0.10;0.10;;;;;;;11.30;74.07;102917.84;7362974;19;20618;-59
2023/01/25 03:42:28;;;;;;;0.10;0.10;;;;;;;11.30;73.94;102912.59;7365683;19;20019;-58
2023/01/25 03:44:53;;;;;;;0.05;0.05;;;;;;;11.31;74.06;102909.16;7363842;19;20851;-59
2023/01/25 03:47:19;;;;;;;0.10;0.10;;;;;;;11.29;74.54;102905.63;7361674;19;20011;-59
2023/01/25 03:49:44;;;;;;;0.00;0.00;;;;;;;11.30;74.67;102902.16;7362258;19;20013;-58
2023/01/25 03:52:09;;;;;;;0.08;0.08;;;;;;;11.27;74.63;102897.78;7359867;19;20025;-59
2023/01/25 03:54:35;;;;;;;0.10;0.10;;;;;;;11.31;74.63;102910.03;7362309;19;20010;-59
2023/01/25 03:57:00;;;;;;;0.00;0.00;;;;;;;11.32;74.31;102908.28;7365252;19;20015;-58
2023/01/25 03:59:26;;;;;;;0.00;0.00;;;;;;;11.33;74.52;102907.41;7362945;19;20863;-59
2023/01/25 04:01:51;;;;;;;0.10;0.10;;;;;;;11.32;74.79;102905.66;7356261;19;20006;-58
2023/01/25 04:04:17;;;;;;;0.08;0.08;;;;;;;11.33;74.33;102908.28;7351764;19;20042;-58
2023/01/25 04:06:42;;;;;;;0.10;0.10;;;;;;;11.33;74.62;102910.03;7354183;19;20498;-59
2023/01/25 04:09:08;;;;;;;0.00;0.00;;;;;;;11.32;75.09;102906.53;7360264;19;20011;-59
2023/01/25 04:11:34;;;;;;;0.00;0.00;;;;;;;11.34;74.49;102909.16;7361972;19;20010;-59
2023/01/25 04:13:59;;;;;;;0.10;0.10;;;;;;;11.34;74.34;102903.94;7350688;19;20471;-59
2023/01/25 04:16:26;;;;;;;0.00;0.00;;;;;;;11.35;74.22;102906.59;7362063;19;20002;-59
2023/01/25 04:18:51;;;;;;;0.00;0.00;;;;;;;11.36;74.40;102904.84;7360901;19;20010;-59
2023/01/25 04:21:16;;;;;;;0.00;0.00;;;;;;;11.37;74.55;102906.59;7340363;19;20031;-59
2023/01/25 04:23:42;;;;;;;0.00;0.00;;;;;;;11.37;74.62;102901.38;7360924;19;20010;-58
2023/01/25 04:26:11;;;;;;;0.10;0.10;;;;;;;11.28;74.38;102880.34;7360189;19;20050;-58
2023/01/25 04:28:36;;;;;;;0.03;0.03;;;;;;;11.37;74.87;102894.38;7361232;19;20741;-59
2023/01/25 04:31:02;;;;;;;0.10;0.10;;;;;;;11.30;75.07;102876.88;7360413;19;22272;-59
2023/01/25 04:33:28;;;;;;;0.00;0.00;;;;;;;11.24;74.86;102862.88;7359154;19;20035;-59
2023/01/25 04:35:53;;;;;;;0.10;0.10;;;;;;;11.38;74.93;102887.41;7361219;19;20011;-58
2023/01/25 04:38:19;;;;;;;0.00;0.00;;;;;;;11.38;74.61;102890.91;7361473;19;20021;-59
2023/01/25 04:40:45;;;;;;;0.00;0.00;;;;;;;11.28;74.59;102872.50;7354359;19;20010;-58
2023/01/25 04:43:12;;;;;;;0.00;0.00;;;;;;;11.40;74.26;102883.06;7358472;19;20025;-58
2023/01/25 04:45:38;;;;;;;0.00;0.00;;;;;;;11.40;74.42;102888.28;7358995;19;20014;-59
2023/01/25 04:48:08;;;;;;;0.10;0.10;;;;;;;11.41;74.75;102879.59;7361660;19;20007;-59
2023/01/25 04:50:38;;;;;;;0.10;0.10;;;;;;;11.41;74.83;102879.59;7362018;19;20006;-59
2023/01/25 04:53:03;;;;;;;0.10;0.10;;;;;;;11.40;74.95;102877.81;7362241;19;20719;-59
2023/01/25 04:55:29;;;;;;;0.08;0.08;;;;;;;11.37;74.74;102883.03;7359493;19;20006;-59
2023/01/25 04:57:54;;;;;;;0.00;0.00;;;;;;;11.42;74.90;102889.19;7360553;19;20014;-58
2023/01/25 05:00:20;;;;;;;0.08;0.08;;;;;;;11.29;74.94;102871.63;7358782;19;20542;-59
2023/01/25 05:02:45;;;;;;;0.10;0.10;;;;;;;11.43;74.62;102888.31;7358250;19;20006;-59
2023/01/25 05:05:11;;;;;;;0.10;0.10;;;;;;;11.39;74.85;102868.22;7358899;19;20467;-59
2023/01/25 05:07:37;;;;;;;0.10;0.10;;;;;;;11.41;74.50;102870.00;7361251;19;20379;-59
2023/01/25 05:10:03;;;;;;;0.00;0.00;;;;;;;11.46;74.51;102872.66;7360248;19;20018;-59
2023/01/25 05:12:29;;;;;;;0.10;0.10;;;;;;;11.45;74.35;102870.88;7362592;19;20018;-59
2023/01/25 05:14:54;;;;;;;0.03;0.03;;;;;;;11.33;74.60;102835.06;7359125;19;20014;-58
2023/01/25 05:17:20;;;;;;;0.10;0.10;;;;;;;11.47;74.73;102848.25;7359813;19;20018;-59
2023/01/25 05:19:45;;;;;;;0.00;0.00;;;;;;;11.47;74.66;102843.03;7359395;19;20369;-59
2023/01/25 05:22:15;;;;;;;0.10;0.10;;;;;;;11.50;74.35;102837.78;7361031;19;20031;-59
2023/01/25 05:24:41;;;;;;;0.08;0.08;;;;;;;11.44;74.31;102822.06;7357595;19;20098;-58
2023/01/25 05:27:08;;;;;;;0.00;0.00;;;;;;;11.49;74.80;102829.94;7361830;19;20087;-59
2023/01/25 05:29:41;;;;;;;0.10;0.10;;;;;;;11.50;74.68;102832.56;7357949;19;20040;-59
2023/01/25 05:32:08;;;;;;;0.08;0.08;;;;;;;11.48;74.78;102834.31;7358649;19;20010;-59
2023/01/25 05:34:34;;;;;;;0.00;0.00;;;;;;;11.47;74.48;102835.16;7358918;19;20597;-59
2023/01/25 05:37:01;;;;;;;0.10;0.10;;;;;;;11.47;74.32;102827.31;7354592;19;20470;-59
2023/01/25 05:39:26;;;;;;;0.10;0.10;;;;;;;11.34;74.99;102800.19;7359438;19;20019;-59
2023/01/25 05:41:52;;;;;;;0.10;0.10;;;;;;;11.40;74.51;102804.56;7359392;19;20006;-59
2023/01/25 05:44:17;;;;;;;0.00;0.00;;;;;;;11.45;74.49;102823.81;7356380;19;20018;-59
2023/01/25 05:46:43;;;;;;;0.00;0.00;;;;;;;11.43;74.82;102815.06;7359057;19;20007;-58
2023/01/25 05:49:09;;;;;;;0.00;0.00;;;;;;;11.44;74.35;102822.06;7355572;19;20011;-58
2023/01/25 05:51:34;;;;;;;0.10;0.10;;;;;;;11.43;74.35;102815.06;7355501;19;20035;-58
2023/01/25 05:54:01;;;;;;;0.10;0.10;;;;;;;11.42;74.36;102813.34;7359997;19;20051;-59
2023/01/25 05:56:27;;;;;;;0.10;0.10;;;;;;;11.39;74.37;102808.94;7357266;19;20038;-58
2023/01/25 05:58:58;;;;;;;0.10;0.10;;;;;;;11.41;74.53;102815.06;7352906;19;21136;-58
2023/01/25 06:01:24;;;;;;;0.00;0.00;;;;;;;11.38;74.62;102812.41;7357879;19;20457;-58
2023/01/25 06:03:50;;;;;;;0.00;0.00;;;;;;;11.36;74.72;102808.06;7355401;19;20014;-59
2023/01/25 06:06:15;;;;;;;0.00;0.00;;;;;;;11.38;74.37;102816.78;7358330;19;20010;-58
2023/01/25 06:08:41;;;;;;;0.10;0.10;;;;;;;11.37;74.35;102812.41;7358046;19;20010;-59
2023/01/25 06:11:07;;;;;;;0.00;0.00;;;;;;;11.36;74.34;102818.53;7357545;19;20010;-59
2023/01/25 06:13:33;;;;;;;0.10;0.10;;;;;;;11.36;74.16;102808.94;7359016;19;20048;-58
2023/01/25 06:15:59;;;;;;;0.08;0.08;;;;;;;11.33;74.92;102813.25;7359088;19;20010;-59
2023/01/25 06:18:24;;;;;;;0.00;0.00;;;;;;;11.35;74.99;102817.66;7359455;19;21217;-59
2023/01/25 06:20:50;;;;;;;0.00;0.00;;;;;;;11.33;74.99;102819.34;7357358;19;20050;-58
2023/01/25 06:23:16;;;;;;;0.00;0.00;;;;;;;11.34;74.90;102820.22;7359640;19;20039;-58
2023/01/25 06:25:41;;;;;;;0.00;0.00;;;;;;;11.35;75.09;102827.22;7357621;19;20033;-57
2023/01/25 06:28:07;;;;;;;0.00;0.00;;;;;;;11.36;75.16;102828.97;7357841;19;20010;-59
2023/01/25 06:30:32;;;;;;;0.00;0.00;;;;;;;11.34;74.79;102831.56;7357407;19;20017;-59
2023/01/25 06:32:58;;;;;;;0.10;0.10;;;;;;;11.33;75.25;102824.59;7358778;19;20007;-59
2023/01/25 06:35:23;;;;;;;0.08;0.08;;;;;;;11.27;74.66;102807.97;7355410;19;20589;-58
2023/01/25 06:37:48;;;;;;;0.10;0.10;;;;;;;11.34;74.84;102822.84;7359767;19;20006;-59
2023/01/25 06:40:14;;;;;;;0.00;0.00;;;;;;;11.32;74.94;102816.75;7356085;19;20954;-59
2023/01/25 06:42:39;;;;;;;0.00;0.00;;;;;;;11.37;74.78;102815.03;7356887;19;20014;-59
2023/01/25 06:45:05;;;;;;;0.00;0.00;;;;;;;11.37;74.68;102800.22;7354342;19;20010;-59
2023/01/25 06:47:31;;;;;;;0.00;0.00;;;;;;;11.40;74.86;102804.56;7359824;19;20010;-59
2023/01/25 06:49:56;;;;;;;0.10;0.10;;;;;;;11.39;74.59;102805.44;7354579;19;21128;-58
2023/01/25 06:52:22;;;;;;;0.00;0.00;;;;;;;11.39;75.15;102800.22;7356757;19;20018;-59
2023/01/25 06:54:47;;;;;;;0.00;0.00;;;;;;;11.39;75.29;102808.06;7357561;19;20446;-59
2023/01/25 06:57:13;;;;;;;0.10;0.10;;;;;;;11.40;74.70;102815.03;7357455;19;20597;-59
2023/01/25 06:59:38;;;;;;;0.00;0.00;;;;;;;11.39;74.85;102808.06;7347274;19;20019;-58
2023/01/25 07:02:03;;;;;;;0.00;0.00;;;;;;;11.40;74.76;102804.56;7355457;19;20011;-59
2023/01/25 07:04:29;;;;;;;0.10;0.10;;;;;;;11.41;74.87;102795.88;7360784;19;20028;-59
2023/01/25 07:06:55;;;;;;;0.10;0.10;;;;;;;11.41;75.20;102777.56;7365813;19;20541;-58
2023/01/25 07:09:23;;;;;;;0.00;0.00;;;;;;;11.36;74.57;102751.38;7364435;19;20026;-58
2023/01/25 07:11:49;;;;;;;0.00;0.00;;;;;;;11.36;74.88;102743.53;7366326;19;21072;-58
2023/01/25 07:14:14;;;;;;;0.00;0.00;;;;;;;11.43;74.83;102762.75;7358082;19;20014;-59
2023/01/25 07:16:41;;;;;;;0.00;0.00;;;;;;;11.40;75.16;102752.25;7363765;19;20026;-59
2023/01/25 07:19:09;;;;;;;0.00;0.00;;;;;;;11.42;75.17;102745.31;7362872;19;20022;-58
2023/01/25 07:21:34;;;;;;;0.00;0.00;;;;;;;11.41;74.93;102738.34;7361242;19;20022;-59
2023/01/25 07:24:02;;;;;;;0.00;0.00;;;;;;;11.41;74.97;102706.94;7361956;19;20445;-59
2023/01/25 07:26:27;;;;;;;0.10;0.10;;;;;;;11.42;75.07;102698.22;7365590;19;20344;-59
2023/01/25 07:28:53;;;;;;;0.10;0.10;;;;;;;11.38;74.93;102684.25;7352763;19;20010;-59
2023/01/25 07:31:19;;;;;;;0.00;0.00;;;;;;;11.43;74.82;102694.75;7364187;19;20014;-58
2023/01/25 07:33:52;;;;;;;0.00;0.00;;;;;;;11.43;74.61;102702.59;7363413;19;20088;-59
2023/01/25 07:36:18;;;;;;;0.10;0.10;;;;;;;11.39;74.60;102714.75;7360823;19;20346;-59
2023/01/25 07:38:44;;;;;;;0.10;0.10;;;;;;;11.27;74.50;102695.50;7359770;19;20026;-57
2023/01/25 07:41:10;;;;;;;0.05;0.05;;;;;;;11.25;74.60;102684.16;7363761;19;20761;-58
2023/01/25 07:43:35;;;;;;;0.05;0.05;;;;;;;11.37;74.54;102720.88;7342611;19;20038;-58
2023/01/25 07:46:06;;;;;;;0.00;0.00;;;;;;;11.26;74.61;102701.63;7361650;19;20038;-59
2023/01/25 07:48:32;;;;;;;0.00;0.00;;;;;;;11.31;74.69;102710.38;7358384;19;20014;-59
2023/01/25 07:51:21;;;;;;;0.03;0.03;;;;;;;11.31;74.31;102710.38;7357208;19;20702;-59
2023/01/25 07:53:57;;;;;;;0.00;0.00;;;;;;;11.27;74.90;102696.38;7254102;19;2004553;-59
2023/01/25 07:56:31;;;;;;;0.10;0.10;;;;;;;11.28;74.51;102684.19;7364203;19;20692;-59
2023/01/25 07:58:57;;;;;;;0.00;0.00;;;;;;;11.26;74.93;102696.38;7361628;19;20003;-58
2023/01/25 08:01:26;;;;;;;0.00;0.00;;;;;;;11.26;74.92;102714.69;7353937;19;21077;-59
2023/01/25 08:03:53;;;;;;;0.00;0.00;;;;;;;11.20;74.68;102712.00;7359422;19;20007;-58
2023/01/25 08:06:26;;;;;;;0.03;0.03;;;;;;;11.25;74.50;102715.53;7362765;19;20681;-58
2023/01/25 08:08:52;;;;;;;0.10;0.10;;;;;;;11.24;74.27;102719.03;7361572;19;20026;-59
2023/01/25 08:11:19;;;;;;;0.00;0.00;;;;;;;11.24;74.37;102724.25;7364710;19;20017;-59
2023/01/25 08:13:46;;;;;;;0.00;0.00;;;;;;;11.22;74.72;102713.78;7362093;19;20015;-59
2023/01/25 08:16:13;;;;;;;0.00;0.00;;;;;;;11.24;74.89;102721.63;7360943;19;20082;-58
2023/01/25 08:18:38;;;;;;;0.00;0.00;;;;;;;11.24;74.49;102713.78;7361544;19;20041;-58
2023/01/25 08:21:04;;;;;;;0.00;0.00;;;;;;;11.24;74.56;102719.91;7360074;19;20010;-59
2023/01/25 08:23:29;;;;;;;0.10;0.10;;;;;;;11.24;74.79;102726.88;7366407;19;20093;-59
2023/01/25 08:26:05;;;;;;;0.00;0.00;;;;;;;11.20;74.50;102714.63;7363098;19;20026;-59
2023/01/25 08:28:31;;;;;;;0.00;0.00;;;;;;;11.27;74.85;102729.50;7362147;19;20025;-58
2023/01/25 08:31:26;;;;;;;0.00;0.00;;;;;;;11.30;74.57;102735.63;7364330;19;21068;-59
2023/01/25 08:33:52;;;;;;;0.00;0.00;;;;;;;11.27;74.51;102724.28;7259622;19;2004605;-59
2023/01/25 08:36:19;;;;;;;0.00;0.00;;;;;;;11.30;74.48;102724.28;7362280;19;20009;-59
2023/01/25 08:38:46;;;;;;;0.10;0.10;;;;;;;11.31;74.94;102710.38;7364428;19;20583;-59
2023/01/25 08:41:15;;;;;;;0.03;0.03;;;;;;;11.26;74.70;102691.16;7359082;19;20050;-59
2023/01/25 08:43:42;;;;;;;0.10;0.10;;;;;;;11.32;74.92;102699.03;7364195;19;20454;-59
2023/01/25 08:46:08;;;;;;;0.00;0.00;;;;;;;11.34;74.24;102705.13;7360257;19;20023;-59
2023/01/25 08:48:34;;;;;;;0.00;0.00;;;;;;;11.35;74.46;102699.03;7365157;19;20010;-58
2023/01/25 08:51:00;;;;;;;0.00;0.00;;;;;;;11.34;74.48;102678.97;7342714;19;20015;-59
2023/01/25 08:53:27;;;;;;;0.00;0.00;;;;;;;11.33;74.95;102666.78;7359297;19;20095;-59
2023/01/25 08:55:52;;;;;;;0.10;0.10;;;;;;;11.35;74.41;102665.03;7364372;19;20045;-58
2023/01/25 08:58:20;;;;;;;0.00;0.00;;;;;;;11.33;74.92;102667.66;7361951;19;20464;-58
2023/01/25 09:00:46;;;;;;;0.10;0.10;;;;;;;11.24;74.71;102661.47;7362215;19;20018;-59
2023/01/25 09:03:12;;;;;;;0.00;0.00;;;;;;;11.33;74.35;102661.53;7363438;19;20011;-59
2023/01/25 09:05:38;;;;;;;0.00;0.00;;;;;;;11.33;74.64;102683.34;7362099;19;20022;-59
2023/01/25 09:08:07;;;;;;;0.00;0.00;;;;;;;11.33;74.44;102682.47;7360579;19;20010;-59
2023/01/25 09:10:33;;;;;;;0.08;0.08;;;;;;;11.33;74.89;102692.94;7362878;19;20093;-59
2023/01/25 09:12:59;;;;;;;0.10;0.10;;;;;;;11.32;74.91;102694.69;7364005;19;20033;-58
2023/01/25 09:15:25;;;;;;;0.00;0.00;;;;;;;11.23;74.89;102681.53;7364052;19;20019;-58
2023/01/25 09:17:55;;;;;;;0.00;0.00;;;;;;;11.30;75.12;102698.13;7364934;19;20183;-59
2023/01/25 09:20:21;;;;;;;0.10;0.10;;;;;;;11.30;74.95;102708.59;7362514;19;20887;-59
2023/01/25 09:22:46;;;;;;;0.08;0.08;;;;;;;11.30;74.79;102725.16;7364179;19;20046;-58
2023/01/25 09:25:13;;;;;;;0.03;0.03;;;;;;;11.31;75.19;102736.53;7363708;19;20006;-58
2023/01/25 09:27:38;;;;;;;0.10;0.10;;;;;;;11.32;75.30;102733.03;7358827;19;20022;-59
2023/01/25 09:30:05;;;;;;;0.00;0.00;;;;;;;11.33;75.03;102729.56;7363572;19;20765;-59
2023/01/25 09:32:31;;;;;;;0.00;0.00;;;;;;;11.34;75.31;102721.69;7356317;19;20014;-59
2023/01/25 09:34:56;;;;;;;0.00;0.00;;;;;;;11.36;75.07;102719.13;7363126;19;20015;-59
2023/01/25 09:37:22;;;;;;;0.05;0.05;;;;;;;11.38;75.30;102696.44;7362120;19;20011;-59
2023/01/25 09:39:47;;;;;;;0.00;0.00;;;;;;;11.39;75.08;102700.81;7364857;19;20018;-59
2023/01/25 09:42:12;;;;;;;0.00;0.00;;;;;;;11.40;75.52;102695.59;7358485;19;20045;-58
2023/01/25 09:45:03;;;;;;;0.10;0.10;;;;;;;11.45;75.29;102695.59;7364085;19;20070;-59
2023/01/25 09:47:46;;;;;;;0.05;0.05;;;;;;;11.45;75.16;102713.91;7262300;19;2004390;-58
2023/01/25 09:50:33;;;;;;;0.00;0.00;;;;;;;11.49;75.25;102723.53;7363458;19;20052;-59
2023/01/25 09:53:13;;;;;;;0.00;0.00;;;;;;;11.51;75.12;102723.56;7360740;19;20025;-59
2023/01/25 09:55:39;;;;;;;0.00;0.00;;;;;;;11.49;75.18;102714.81;7359619;19;20081;-58
2023/01/25 09:58:13;;;;;;;0.00;0.00;;;;;;;11.52;75.05;102699.16;7361909;19;23233;-58
2023/01/25 10:00:44;;;;;;;0.10;0.10;;;;;;;11.50;75.29;102672.97;7361598;19;20007;-59
2023/01/25 10:03:21;;;;;;;0.10;0.10;;;;;;;11.50;75.04;102675.56;7363212;19;20359;-59
2023/01/25 10:05:49;;;;;;;0.00;0.00;;;;;;;11.50;75.56;102675.56;7359424;19;20945;-59
2023/01/25 10:08:26;;;;;;;0.10;0.10;;;;;;;11.52;75.48;102676.47;7358570;19;20804;-59
2023/01/25 10:11:29;;;;;;;0.00;0.00;;;;;;;11.57;75.15;102681.72;7364283;19;20006;-59
2023/01/25 10:13:56;;;;;;;0.00;0.00;;;;;;;11.58;75.19;102694.81;7258393;19;2004446;-58
2023/01/25 10:16:45;;;;;;;0.10;0.10;;;;;;;11.61;74.96;102705.31;7360897;19;20861;-59
2023/01/25 10:19:21;;;;;;;0.00;0.00;;;;;;;11.63;75.46;102718.41;7262045;19;2004559;-59
2023/01/25 10:22:04;;;;;;;0.03;0.03;;;;;;;11.65;75.36;102727.13;7355221;19;20014;-59
2023/01/25 10:24:43;;;;;;;0.10;0.10;;;;;;;11.67;75.44;102730.63;7357070;19;20021;-58
2023/01/25 10:27:12;;;;;;;0.10;0.10;;;;;;;11.68;75.71;102738.50;7359774;19;20343;-59
2023/01/25 10:29:38;;;;;;;0.10;0.10;;;;;;;11.72;75.34;102743.75;7351418;19;20510;-59
2023/01/25 10:32:22;;;;;;;0.00;0.00;;;;;;;11.78;75.70;102739.41;7355948;19;20010;-58
2023/01/25 10:34:53;;;;;;;0.05;0.05;;;;;;;11.81;75.74;102744.69;7355383;19;20494;-59
2023/01/25 10:37:23;;;;;;;0.08;0.08;;;;;;;11.85;75.83;102745.56;7357166;19;20010;-59
2023/01/25 10:39:53;;;;;;;0.00;0.00;;;;;;;11.89;75.93;102742.09;7356271;19;20013;-59
2023/01/25 10:42:18;;;;;;;0.00;0.00;;;;;;;11.91;75.53;102740.34;7356227;19;20011;-58
2023/01/25 10:44:44;;;;;;;0.08;0.08;;;;;;;11.94;75.70;102745.63;7353558;19;20007;-59
2023/01/25 10:47:32;;;;;;;0.00;0.00;;;;;;;12.02;75.34;102740.44;7358899;19;20064;-59
2023/01/25 10:49:58;;;;;;;0.08;0.08;;;;;;;12.01;75.29;102744.75;7359374;19;20006;-58
2023/01/25 10:52:26;;;;;;;0.05;0.05;;;;;;;12.05;75.78;102748.28;7356845;19;20355;-58
2023/01/25 10:55:17;;;;;;;0.00;0.00;;;;;;;12.09;75.13;102750.91;7358367;19;20738;-59
2023/01/25 10:57:59;;;;;;;0.10;0.10;;;;;;;12.13;75.09;102751.81;7252958;19;2004423;-59
2023/01/25 11:00:40;;;;;;;0.10;0.10;;;;;;;12.14;75.39;102746.56;7356721;19;20687;-59
2023/01/25 11:03:18;;;;;;;0.10;0.10;;;;;;;12.16;75.69;102746.56;7355266;19;20018;-59
2023/01/25 11:05:53;;;;;;;0.10;0.10;;;;;;;12.15;75.47;102744.81;7350077;19;20018;-59
2023/01/25 11:08:19;;;;;;;0.10;0.10;;;;;;;12.23;75.36;102763.19;7355384;19;20014;-58
2023/01/25 11:10:45;;;;;;;0.00;0.00;;;;;;;12.27;75.77;102757.13;7351882;19;20010;-59
2023/01/25 11:13:19;;;;;;;0.03;0.03;;;;;;;12.29;75.65;102760.59;7349311;19;20601;-59
2023/01/25 11:15:58;;;;;;;0.10;0.10;;;;;;;12.35;75.24;102768.47;7346238;19;20010;-59
2023/01/25 11:18:27;;;;;;;0.10;0.10;;;;;;;12.35;75.35;102778.94;7344431;19;20017;-60
2023/01/25 11:21:11;;;;;;;0.00;0.00;;;;;;;12.37;75.27;102780.72;7349360;19;20052;-59
2023/01/25 11:23:36;;;;;;;0.08;0.08;;;;;;;12.36;75.11;102778.94;7347847;19;20006;-58
2023/01/25 11:26:18;;;;;;;0.10;0.10;;;;;;;12.38;74.85;102779.84;7344277;19;20023;-60
2023/01/25 11:28:47;;;;;;;0.00;0.00;;;;;;;12.34;75.05;102782.44;7336948;19;20074;-59